sensor_id;sensor_type;location;lat;lon;timestamp;P1;durP1;ratioP1;P2;durP2;ratioP2
23578;SDS011;11967;50.852;4.400;2023-07-30T00:00:37;9.13;;;3.55;;
23578;SDS011;11967;50.852;4.400;2023-07-30T00:03:02;9.13;;;3.50;;
23578;SDS011;11967;50.852;4.400;2023-07-30T00:05:28;14.98;;;4.15;;
23578;SDS011;11967;50.852;4.400;2023-07-30T00:07:53;12.13;;;3.72;;
23578;SDS011;11967;50.852;4.400;2023-07-30T00:10:19;11.73;;;3.38;;
23578;SDS011;11967;50.852;4.400;2023-07-30T00:12:45;13.07;;;3.38;;
23578;SDS011;11967;50.852;4.400;2023-07-30T00:15:11;9.73;;;3.55;;
23578;SDS011;11967;50.852;4.400;2023-07-30T00:17:38;13.73;;;3.50;;
23578;SDS011;11967;50.852;4.400;2023-07-30T00:20:04;13.18;;;3.72;;
23578;SDS011;11967;50.852;4.400;2023-07-30T00:22:33;12.25;;;3.88;;
23578;SDS011;11967;50.852;4.400;2023-07-30T00:24:59;14.70;;;3.78;;
23578;SDS011;11967;50.852;4.400;2023-07-30T00:27:25;13.93;;;3.53;;
23578;SDS011;11967;50.852;4.400;2023-07-30T00:29:50;9.70;;;3.40;;
23578;SDS011;11967;50.852;4.400;2023-07-30T00:32:16;14.38;;;3.47;;
23578;SDS011;11967;50.852;4.400;2023-07-30T00:34:42;14.98;;;3.75;;
23578;SDS011;11967;50.852;4.400;2023-07-30T00:37:08;15.80;;;3.90;;
23578;SDS011;11967;50.852;4.400;2023-07-30T00:39:34;14.40;;;3.47;;
23578;SDS011;11967;50.852;4.400;2023-07-30T00:42:00;19.48;;;3.80;;
23578;SDS011;11967;50.852;4.400;2023-07-30T00:44:25;10.77;;;3.15;;
23578;SDS011;11967;50.852;4.400;2023-07-30T00:46:51;16.42;;;3.38;;
23578;SDS011;11967;50.852;4.400;2023-07-30T00:49:17;15.57;;;3.58;;
23578;SDS011;11967;50.852;4.400;2023-07-30T00:51:43;14.55;;;3.47;;
23578;SDS011;11967;50.852;4.400;2023-07-30T00:54:10;18.40;;;4.20;;
23578;SDS011;11967;50.852;4.400;2023-07-30T00:56:36;19.70;;;4.00;;
23578;SDS011;11967;50.852;4.400;2023-07-30T00:59:02;19.35;;;3.70;;
23578;SDS011;11967;50.852;4.400;2023-07-30T01:01:28;14.05;;;3.53;;
23578;SDS011;11967;50.852;4.400;2023-07-30T01:03:58;11.52;;;3.33;;
23578;SDS011;11967;50.852;4.400;2023-07-30T01:06:23;15.80;;;3.17;;
23578;SDS011;11967;50.852;4.400;2023-07-30T01:08:49;16.17;;;4.47;;
23578;SDS011;11967;50.852;4.400;2023-07-30T01:11:15;16.50;;;3.40;;
23578;SDS011;11967;50.852;4.400;2023-07-30T01:13:42;14.52;;;3.28;;
23578;SDS011;11967;50.852;4.400;2023-07-30T01:16:08;16.25;;;3.50;;
23578;SDS011;11967;50.852;4.400;2023-07-30T01:18:34;16.63;;;3.55;;
23578;SDS011;11967;50.852;4.400;2023-07-30T01:21:00;13.45;;;2.92;;
23578;SDS011;11967;50.852;4.400;2023-07-30T01:23:26;15.55;;;4.00;;
23578;SDS011;11967;50.852;4.400;2023-07-30T01:26:07;22.33;;;3.80;;
23578;SDS011;11967;50.852;4.400;2023-07-30T01:28:39;18.70;;;3.05;;
23578;SDS011;11967;50.852;4.400;2023-07-30T01:31:12;15.80;;;3.67;;
23578;SDS011;11967;50.852;4.400;2023-07-30T01:33:40;16.30;;;3.30;;
23578;SDS011;11967;50.852;4.400;2023-07-30T01:36:06;17.13;;;3.47;;
23578;SDS011;11967;50.852;4.400;2023-07-30T01:38:36;22.33;;;4.32;;
23578;SDS011;11967;50.852;4.400;2023-07-30T01:41:03;13.73;;;3.03;;
23578;SDS011;11967;50.852;4.400;2023-07-30T01:43:29;16.70;;;3.33;;
23578;SDS011;11967;50.852;4.400;2023-07-30T01:45:55;15.75;;;3.33;;
23578;SDS011;11967;50.852;4.400;2023-07-30T01:48:20;20.02;;;4.18;;
23578;SDS011;11967;50.852;4.400;2023-07-30T01:50:46;13.18;;;3.60;;
23578;SDS011;11967;50.852;4.400;2023-07-30T01:53:14;15.32;;;3.42;;
23578;SDS011;11967;50.852;4.400;2023-07-30T01:55:40;18.67;;;3.42;;
23578;SDS011;11967;50.852;4.400;2023-07-30T01:58:08;20.75;;;3.63;;
23578;SDS011;11967;50.852;4.400;2023-07-30T02:00:35;15.02;;;3.00;;
23578;SDS011;11967;50.852;4.400;2023-07-30T02:03:01;16.95;;;3.47;;
23578;SDS011;11967;50.852;4.400;2023-07-30T02:05:27;17.20;;;3.25;;
23578;SDS011;11967;50.852;4.400;2023-07-30T02:07:53;18.85;;;2.95;;
23578;SDS011;11967;50.852;4.400;2023-07-30T02:10:18;17.42;;;3.72;;
23578;SDS011;11967;50.852;4.400;2023-07-30T02:12:44;15.05;;;3.80;;
23578;SDS011;11967;50.852;4.400;2023-07-30T02:15:09;16.15;;;3.38;;
23578;SDS011;11967;50.852;4.400;2023-07-30T02:17:35;16.23;;;3.17;;
23578;SDS011;11967;50.852;4.400;2023-07-30T02:20:01;13.93;;;3.38;;
23578;SDS011;11967;50.852;4.400;2023-07-30T02:22:26;17.70;;;3.33;;
23578;SDS011;11967;50.852;4.400;2023-07-30T02:24:52;18.58;;;3.40;;
23578;SDS011;11967;50.852;4.400;2023-07-30T02:27:18;22.10;;;3.90;;
23578;SDS011;11967;50.852;4.400;2023-07-30T02:29:43;20.15;;;3.88;;
23578;SDS011;11967;50.852;4.400;2023-07-30T02:32:09;19.05;;;3.40;;
23578;SDS011;11967;50.852;4.400;2023-07-30T02:34:34;13.25;;;3.25;;
23578;SDS011;11967;50.852;4.400;2023-07-30T02:37:00;17.73;;;3.47;;
23578;SDS011;11967;50.852;4.400;2023-07-30T02:39:25;17.58;;;2.92;;
23578;SDS011;11967;50.852;4.400;2023-07-30T02:41:51;15.55;;;3.17;;
23578;SDS011;11967;50.852;4.400;2023-07-30T02:44:17;14.35;;;3.28;;
23578;SDS011;11967;50.852;4.400;2023-07-30T02:46:42;19.20;;;3.90;;
23578;SDS011;11967;50.852;4.400;2023-07-30T02:49:08;18.33;;;3.95;;
23578;SDS011;11967;50.852;4.400;2023-07-30T02:51:33;20.63;;;3.45;;
23578;SDS011;11967;50.852;4.400;2023-07-30T02:54:03;17.42;;;3.50;;
23578;SDS011;11967;50.852;4.400;2023-07-30T02:56:29;17.50;;;3.30;;
23578;SDS011;11967;50.852;4.400;2023-07-30T02:58:55;19.00;;;3.10;;
23578;SDS011;11967;50.852;4.400;2023-07-30T03:01:22;16.85;;;3.28;;
23578;SDS011;11967;50.852;4.400;2023-07-30T03:03:47;15.00;;;2.88;;
23578;SDS011;11967;50.852;4.400;2023-07-30T03:06:13;16.10;;;3.50;;
23578;SDS011;11967;50.852;4.400;2023-07-30T03:08:41;17.35;;;3.17;;
23578;SDS011;11967;50.852;4.400;2023-07-30T03:11:07;17.00;;;3.70;;
23578;SDS011;11967;50.852;4.400;2023-07-30T03:13:33;21.05;;;2.92;;
23578;SDS011;11967;50.852;4.400;2023-07-30T03:15:58;19.45;;;3.00;;
23578;SDS011;11967;50.852;4.400;2023-07-30T03:18:24;17.30;;;2.80;;
23578;SDS011;11967;50.852;4.400;2023-07-30T03:20:50;21.20;;;3.33;;
23578;SDS011;11967;50.852;4.400;2023-07-30T03:23:15;24.08;;;3.80;;
23578;SDS011;11967;50.852;4.400;2023-07-30T03:25:41;19.38;;;3.20;;
23578;SDS011;11967;50.852;4.400;2023-07-30T03:28:06;19.60;;;3.25;;
23578;SDS011;11967;50.852;4.400;2023-07-30T03:30:32;22.13;;;2.88;;
23578;SDS011;11967;50.852;4.400;2023-07-30T03:32:58;18.65;;;3.20;;
23578;SDS011;11967;50.852;4.400;2023-07-30T03:35:23;15.43;;;3.13;;
23578;SDS011;11967;50.852;4.400;2023-07-30T03:37:49;18.13;;;2.88;;
23578;SDS011;11967;50.852;4.400;2023-07-30T03:40:14;15.73;;;2.92;;
23578;SDS011;11967;50.852;4.400;2023-07-30T03:42:40;18.98;;;3.00;;
23578;SDS011;11967;50.852;4.400;2023-07-30T03:45:06;22.10;;;4.00;;
23578;SDS011;11967;50.852;4.400;2023-07-30T03:47:32;27.08;;;3.60;;
23578;SDS011;11967;50.852;4.400;2023-07-30T03:49:57;18.05;;;3.03;;
23578;SDS011;11967;50.852;4.400;2023-07-30T03:52:23;17.90;;;3.00;;
23578;SDS011;11967;50.852;4.400;2023-07-30T03:54:48;16.48;;;2.70;;
23578;SDS011;11967;50.852;4.400;2023-07-30T03:57:14;17.02;;;3.05;;
23578;SDS011;11967;50.852;4.400;2023-07-30T03:59:39;17.90;;;3.67;;
23578;SDS011;11967;50.852;4.400;2023-07-30T04:02:05;17.83;;;3.38;;
23578;SDS011;11967;50.852;4.400;2023-07-30T04:04:31;17.50;;;3.55;;
23578;SDS011;11967;50.852;4.400;2023-07-30T04:06:56;19.23;;;3.60;;
23578;SDS011;11967;50.852;4.400;2023-07-30T04:09:22;19.73;;;3.60;;
23578;SDS011;11967;50.852;4.400;2023-07-30T04:11:47;20.90;;;3.15;;
23578;SDS011;11967;50.852;4.400;2023-07-30T04:14:13;16.63;;;3.63;;
23578;SDS011;11967;50.852;4.400;2023-07-30T04:16:38;16.77;;;3.10;;
23578;SDS011;11967;50.852;4.400;2023-07-30T04:19:04;21.48;;;3.50;;
23578;SDS011;11967;50.852;4.400;2023-07-30T04:21:30;19.63;;;3.70;;
23578;SDS011;11967;50.852;4.400;2023-07-30T04:23:55;22.45;;;3.22;;
23578;SDS011;11967;50.852;4.400;2023-07-30T04:26:21;19.65;;;3.45;;
23578;SDS011;11967;50.852;4.400;2023-07-30T04:28:46;20.77;;;3.83;;
23578;SDS011;11967;50.852;4.400;2023-07-30T04:31:12;15.95;;;3.00;;
23578;SDS011;11967;50.852;4.400;2023-07-30T04:33:37;17.60;;;3.40;;
23578;SDS011;11967;50.852;4.400;2023-07-30T04:36:03;21.35;;;3.30;;
23578;SDS011;11967;50.852;4.400;2023-07-30T04:38:29;17.55;;;3.15;;
23578;SDS011;11967;50.852;4.400;2023-07-30T04:40:57;22.20;;;3.78;;
23578;SDS011;11967;50.852;4.400;2023-07-30T04:43:23;23.10;;;3.40;;
23578;SDS011;11967;50.852;4.400;2023-07-30T04:45:48;19.45;;;3.10;;
23578;SDS011;11967;50.852;4.400;2023-07-30T04:48:14;18.70;;;3.25;;
23578;SDS011;11967;50.852;4.400;2023-07-30T04:50:40;16.73;;;3.45;;
23578;SDS011;11967;50.852;4.400;2023-07-30T04:53:07;22.30;;;3.33;;
23578;SDS011;11967;50.852;4.400;2023-07-30T04:55:33;24.42;;;3.50;;
23578;SDS011;11967;50.852;4.400;2023-07-30T04:57:59;20.73;;;3.65;;
23578;SDS011;11967;50.852;4.400;2023-07-30T05:00:24;27.35;;;3.40;;
23578;SDS011;11967;50.852;4.400;2023-07-30T05:02:50;23.95;;;3.50;;
23578;SDS011;11967;50.852;4.400;2023-07-30T05:05:16;17.15;;;3.35;;
23578;SDS011;11967;50.852;4.400;2023-07-30T05:07:41;19.23;;;3.45;;
23578;SDS011;11967;50.852;4.400;2023-07-30T05:10:07;16.02;;;3.10;;
23578;SDS011;11967;50.852;4.400;2023-07-30T05:12:35;19.45;;;3.40;;
23578;SDS011;11967;50.852;4.400;2023-07-30T05:15:01;20.58;;;3.35;;
23578;SDS011;11967;50.852;4.400;2023-07-30T05:17:27;15.52;;;3.00;;
23578;SDS011;11967;50.852;4.400;2023-07-30T05:19:53;28.95;;;4.28;;
23578;SDS011;11967;50.852;4.400;2023-07-30T05:22:19;27.52;;;4.30;;
23578;SDS011;11967;50.852;4.400;2023-07-30T05:24:44;18.85;;;3.78;;
23578;SDS011;11967;50.852;4.400;2023-07-30T05:27:10;20.13;;;3.25;;
23578;SDS011;11967;50.852;4.400;2023-07-30T05:29:35;19.63;;;3.55;;
23578;SDS011;11967;50.852;4.400;2023-07-30T05:32:02;22.60;;;3.60;;
23578;SDS011;11967;50.852;4.400;2023-07-30T05:34:28;23.33;;;3.85;;
23578;SDS011;11967;50.852;4.400;2023-07-30T05:36:53;22.25;;;4.07;;
23578;SDS011;11967;50.852;4.400;2023-07-30T05:39:19;17.42;;;3.17;;
23578;SDS011;11967;50.852;4.400;2023-07-30T05:41:44;26.58;;;3.67;;
23578;SDS011;11967;50.852;4.400;2023-07-30T05:44:10;23.73;;;3.85;;
23578;SDS011;11967;50.852;4.400;2023-07-30T05:46:37;24.20;;;4.07;;
23578;SDS011;11967;50.852;4.400;2023-07-30T05:49:02;17.17;;;4.00;;
23578;SDS011;11967;50.852;4.400;2023-07-30T05:51:28;21.48;;;3.70;;
23578;SDS011;11967;50.852;4.400;2023-07-30T05:53:53;17.80;;;3.13;;
23578;SDS011;11967;50.852;4.400;2023-07-30T05:56:19;28.38;;;5.07;;
23578;SDS011;11967;50.852;4.400;2023-07-30T05:58:45;34.05;;;4.45;;
23578;SDS011;11967;50.852;4.400;2023-07-30T06:01:10;21.67;;;3.75;;
23578;SDS011;11967;50.852;4.400;2023-07-30T06:03:36;23.85;;;4.03;;
23578;SDS011;11967;50.852;4.400;2023-07-30T06:06:02;21.55;;;3.50;;
23578;SDS011;11967;50.852;4.400;2023-07-30T06:08:28;23.08;;;3.67;;
23578;SDS011;11967;50.852;4.400;2023-07-30T06:10:54;19.50;;;4.03;;
23578;SDS011;11967;50.852;4.400;2023-07-30T06:13:20;25.83;;;3.75;;
23578;SDS011;11967;50.852;4.400;2023-07-30T06:15:46;21.13;;;3.65;;
23578;SDS011;11967;50.852;4.400;2023-07-30T06:18:12;21.55;;;3.80;;
23578;SDS011;11967;50.852;4.400;2023-07-30T06:20:37;15.90;;;3.72;;
23578;SDS011;11967;50.852;4.400;2023-07-30T06:23:03;21.02;;;3.47;;
23578;SDS011;11967;50.852;4.400;2023-07-30T06:25:29;15.73;;;3.15;;
23578;SDS011;11967;50.852;4.400;2023-07-30T06:27:55;22.20;;;3.85;;
23578;SDS011;11967;50.852;4.400;2023-07-30T06:30:23;22.05;;;3.75;;
23578;SDS011;11967;50.852;4.400;2023-07-30T06:32:49;18.63;;;3.15;;
23578;SDS011;11967;50.852;4.400;2023-07-30T06:35:16;19.08;;;3.58;;
23578;SDS011;11967;50.852;4.400;2023-07-30T06:37:42;23.02;;;3.67;;
23578;SDS011;11967;50.852;4.400;2023-07-30T06:40:07;28.40;;;3.90;;
23578;SDS011;11967;50.852;4.400;2023-07-30T06:42:33;23.95;;;3.38;;
23578;SDS011;11967;50.852;4.400;2023-07-30T06:44:59;23.27;;;4.15;;
23578;SDS011;11967;50.852;4.400;2023-07-30T06:47:24;22.63;;;4.10;;
23578;SDS011;11967;50.852;4.400;2023-07-30T06:49:50;25.83;;;4.18;;
23578;SDS011;11967;50.852;4.400;2023-07-30T06:52:15;19.60;;;3.90;;
23578;SDS011;11967;50.852;4.400;2023-07-30T06:54:41;22.85;;;3.55;;
23578;SDS011;11967;50.852;4.400;2023-07-30T06:57:07;29.17;;;3.90;;
23578;SDS011;11967;50.852;4.400;2023-07-30T06:59:33;23.33;;;3.78;;
23578;SDS011;11967;50.852;4.400;2023-07-30T07:01:59;22.05;;;3.85;;
23578;SDS011;11967;50.852;4.400;2023-07-30T07:04:24;20.17;;;3.38;;
23578;SDS011;11967;50.852;4.400;2023-07-30T07:06:51;26.42;;;3.45;;
23578;SDS011;11967;50.852;4.400;2023-07-30T07:09:16;19.65;;;3.78;;
23578;SDS011;11967;50.852;4.400;2023-07-30T07:11:43;21.35;;;3.72;;
23578;SDS011;11967;50.852;4.400;2023-07-30T07:14:08;20.83;;;3.92;;
23578;SDS011;11967;50.852;4.400;2023-07-30T07:16:34;19.63;;;3.55;;
23578;SDS011;11967;50.852;4.400;2023-07-30T07:19:00;19.63;;;3.78;;
23578;SDS011;11967;50.852;4.400;2023-07-30T07:21:26;17.05;;;3.97;;
23578;SDS011;11967;50.852;4.400;2023-07-30T07:23:53;26.92;;;4.10;;
23578;SDS011;11967;50.852;4.400;2023-07-30T07:26:20;21.23;;;4.15;;
23578;SDS011;11967;50.852;4.400;2023-07-30T07:28:46;18.92;;;3.63;;
23578;SDS011;11967;50.852;4.400;2023-07-30T07:31:11;23.25;;;3.88;;
23578;SDS011;11967;50.852;4.400;2023-07-30T07:33:37;19.90;;;3.78;;
23578;SDS011;11967;50.852;4.400;2023-07-30T07:36:06;19.88;;;3.45;;
23578;SDS011;11967;50.852;4.400;2023-07-30T07:38:33;19.10;;;3.63;;
23578;SDS011;11967;50.852;4.400;2023-07-30T07:40:59;25.20;;;4.32;;
23578;SDS011;11967;50.852;4.400;2023-07-30T07:43:26;19.15;;;3.63;;
23578;SDS011;11967;50.852;4.400;2023-07-30T07:45:52;17.83;;;3.58;;
23578;SDS011;11967;50.852;4.400;2023-07-30T07:48:17;24.05;;;4.15;;
23578;SDS011;11967;50.852;4.400;2023-07-30T07:50:43;22.20;;;3.40;;
23578;SDS011;11967;50.852;4.400;2023-07-30T07:53:10;20.58;;;3.88;;
23578;SDS011;11967;50.852;4.400;2023-07-30T07:55:35;16.70;;;3.40;;
23578;SDS011;11967;50.852;4.400;2023-07-30T07:58:01;25.90;;;3.53;;
23578;SDS011;11967;50.852;4.400;2023-07-30T08:00:26;22.65;;;4.07;;
23578;SDS011;11967;50.852;4.400;2023-07-30T08:02:52;23.10;;;3.70;;
23578;SDS011;11967;50.852;4.400;2023-07-30T08:05:18;22.25;;;3.35;;
23578;SDS011;11967;50.852;4.400;2023-07-30T08:07:45;20.85;;;3.58;;
23578;SDS011;11967;50.852;4.400;2023-07-30T08:10:11;24.05;;;4.38;;
23578;SDS011;11967;50.852;4.400;2023-07-30T08:12:37;19.75;;;3.33;;
23578;SDS011;11967;50.852;4.400;2023-07-30T08:15:03;14.45;;;2.85;;
23578;SDS011;11967;50.852;4.400;2023-07-30T08:17:28;18.13;;;3.63;;
23578;SDS011;11967;50.852;4.400;2023-07-30T08:19:54;20.58;;;3.38;;
23578;SDS011;11967;50.852;4.400;2023-07-30T08:22:20;24.35;;;4.13;;
23578;SDS011;11967;50.852;4.400;2023-07-30T08:24:55;25.08;;;3.88;;
23578;SDS011;11967;50.852;4.400;2023-07-30T08:27:20;18.83;;;3.20;;
23578;SDS011;11967;50.852;4.400;2023-07-30T08:29:46;17.40;;;3.03;;
23578;SDS011;11967;50.852;4.400;2023-07-30T08:32:15;17.15;;;3.08;;
23578;SDS011;11967;50.852;4.400;2023-07-30T08:34:40;14.48;;;3.28;;
23578;SDS011;11967;50.852;4.400;2023-07-30T08:37:06;21.00;;;3.63;;
23578;SDS011;11967;50.852;4.400;2023-07-30T08:39:31;17.52;;;3.00;;
23578;SDS011;11967;50.852;4.400;2023-07-30T08:41:57;23.23;;;2.97;;
23578;SDS011;11967;50.852;4.400;2023-07-30T08:44:23;22.52;;;3.65;;
23578;SDS011;11967;50.852;4.400;2023-07-30T08:46:49;15.75;;;3.05;;
23578;SDS011;11967;50.852;4.400;2023-07-30T08:49:14;15.10;;;3.40;;
23578;SDS011;11967;50.852;4.400;2023-07-30T08:51:40;17.52;;;3.08;;
23578;SDS011;11967;50.852;4.400;2023-07-30T08:54:08;15.15;;;3.53;;
23578;SDS011;11967;50.852;4.400;2023-07-30T08:56:35;15.70;;;3.35;;
23578;SDS011;11967;50.852;4.400;2023-07-30T08:59:01;21.73;;;3.08;;
23578;SDS011;11967;50.852;4.400;2023-07-30T09:01:29;15.07;;;3.03;;
23578;SDS011;11967;50.852;4.400;2023-07-30T09:03:59;13.90;;;2.90;;
23578;SDS011;11967;50.852;4.400;2023-07-30T09:06:26;11.80;;;2.92;;
23578;SDS011;11967;50.852;4.400;2023-07-30T09:08:51;16.88;;;2.70;;
23578;SDS011;11967;50.852;4.400;2023-07-30T09:11:18;17.77;;;3.55;;
23578;SDS011;11967;50.852;4.400;2023-07-30T09:13:46;14.98;;;2.60;;
23578;SDS011;11967;50.852;4.400;2023-07-30T09:16:12;14.77;;;2.90;;
23578;SDS011;11967;50.852;4.400;2023-07-30T09:18:39;20.10;;;3.28;;
23578;SDS011;11967;50.852;4.400;2023-07-30T09:21:12;11.68;;;2.95;;
23578;SDS011;11967;50.852;4.400;2023-07-30T09:23:47;15.05;;;2.60;;
23578;SDS011;11967;50.852;4.400;2023-07-30T09:26:14;15.35;;;2.65;;
23578;SDS011;11967;50.852;4.400;2023-07-30T09:28:39;14.68;;;3.28;;
23578;SDS011;11967;50.852;4.400;2023-07-30T09:31:06;8.98;;;2.25;;
23578;SDS011;11967;50.852;4.400;2023-07-30T09:33:33;14.50;;;2.80;;
23578;SDS011;11967;50.852;4.400;2023-07-30T09:36:03;8.93;;;2.40;;
23578;SDS011;11967;50.852;4.400;2023-07-30T09:38:29;16.67;;;3.03;;
23578;SDS011;11967;50.852;4.400;2023-07-30T09:41:01;21.65;;;3.30;;
23578;SDS011;11967;50.852;4.400;2023-07-30T09:43:31;15.55;;;3.00;;
23578;SDS011;11967;50.852;4.400;2023-07-30T09:46:05;13.80;;;2.58;;
23578;SDS011;11967;50.852;4.400;2023-07-30T09:48:32;15.80;;;2.92;;
23578;SDS011;11967;50.852;4.400;2023-07-30T09:50:59;13.88;;;2.70;;
23578;SDS011;11967;50.852;4.400;2023-07-30T09:53:28;12.38;;;2.85;;
23578;SDS011;11967;50.852;4.400;2023-07-30T09:55:55;14.85;;;2.90;;
23578;SDS011;11967;50.852;4.400;2023-07-30T09:58:21;11.02;;;2.30;;
23578;SDS011;11967;50.852;4.400;2023-07-30T10:00:46;16.80;;;2.97;;
23578;SDS011;11967;50.852;4.400;2023-07-30T10:03:15;17.50;;;3.35;;
23578;SDS011;11967;50.852;4.400;2023-07-30T10:05:44;13.77;;;3.53;;
23578;SDS011;11967;50.852;4.400;2023-07-30T10:08:12;11.43;;;2.97;;
23578;SDS011;11967;50.852;4.400;2023-07-30T10:10:45;15.40;;;3.30;;
23578;SDS011;11967;50.852;4.400;2023-07-30T10:13:11;16.70;;;3.00;;
23578;SDS011;11967;50.852;4.400;2023-07-30T10:15:38;13.65;;;2.80;;
23578;SDS011;11967;50.852;4.400;2023-07-30T10:18:04;16.60;;;2.63;;
23578;SDS011;11967;50.852;4.400;2023-07-30T10:20:31;13.43;;;2.72;;
23578;SDS011;11967;50.852;4.400;2023-07-30T10:22:58;15.85;;;2.80;;
23578;SDS011;11967;50.852;4.400;2023-07-30T10:25:29;15.18;;;2.50;;
23578;SDS011;11967;50.852;4.400;2023-07-30T10:30:55;14.82;;;2.65;;
23578;SDS011;11967;50.852;4.400;2023-07-30T10:33:23;13.88;;;2.50;;
23578;SDS011;11967;50.852;4.400;2023-07-30T10:35:52;12.32;;;2.88;;
23578;SDS011;11967;50.852;4.400;2023-07-30T10:41:02;14.57;;;2.40;;
23578;SDS011;11967;50.852;4.400;2023-07-30T10:43:31;13.77;;;2.53;;
23578;SDS011;11967;50.852;4.400;2023-07-30T10:46:05;10.95;;;2.63;;
23578;SDS011;11967;50.852;4.400;2023-07-30T10:48:32;9.38;;;2.30;;
23578;SDS011;11967;50.852;4.400;2023-07-30T10:51:23;13.85;;;2.47;;
23578;SDS011;11967;50.852;4.400;2023-07-30T10:53:49;12.05;;;2.30;;
23578;SDS011;11967;50.852;4.400;2023-07-30T10:56:17;13.75;;;2.75;;
23578;SDS011;11967;50.852;4.400;2023-07-30T10:58:55;13.85;;;3.00;;
23578;SDS011;11967;50.852;4.400;2023-07-30T11:01:24;10.60;;;2.15;;
23578;SDS011;11967;50.852;4.400;2023-07-30T11:03:59;10.13;;;2.00;;
23578;SDS011;11967;50.852;4.400;2023-07-30T11:06:25;12.35;;;2.40;;
23578;SDS011;11967;50.852;4.400;2023-07-30T11:08:52;14.30;;;2.50;;
23578;SDS011;11967;50.852;4.400;2023-07-30T11:11:18;14.73;;;2.67;;
23578;SDS011;11967;50.852;4.400;2023-07-30T11:13:46;11.60;;;2.28;;
23578;SDS011;11967;50.852;4.400;2023-07-30T11:16:17;12.27;;;2.95;;
23578;SDS011;11967;50.852;4.400;2023-07-30T11:18:49;14.25;;;2.42;;
23578;SDS011;11967;50.852;4.400;2023-07-30T11:21:16;12.38;;;2.22;;
23578;SDS011;11967;50.852;4.400;2023-07-30T11:23:43;9.70;;;2.55;;
23578;SDS011;11967;50.852;4.400;2023-07-30T11:26:15;8.82;;;2.10;;
23578;SDS011;11967;50.852;4.400;2023-07-30T11:28:46;12.05;;;2.58;;
23578;SDS011;11967;50.852;4.400;2023-07-30T11:31:13;9.00;;;2.00;;
23578;SDS011;11967;50.852;4.400;2023-07-30T11:33:42;10.45;;;1.70;;
23578;SDS011;11967;50.852;4.400;2023-07-30T11:36:12;11.10;;;2.00;;
23578;SDS011;11967;50.852;4.400;2023-07-30T11:38:41;7.18;;;1.80;;
23578;SDS011;11967;50.852;4.400;2023-07-30T11:41:09;7.13;;;1.38;;
23578;SDS011;11967;50.852;4.400;2023-07-30T11:43:37;8.48;;;1.65;;
23578;SDS011;11967;50.852;4.400;2023-07-30T11:46:08;6.68;;;1.45;;
23578;SDS011;11967;50.852;4.400;2023-07-30T11:48:39;6.90;;;1.60;;
23578;SDS011;11967;50.852;4.400;2023-07-30T11:51:06;8.52;;;1.70;;
23578;SDS011;11967;50.852;4.400;2023-07-30T11:53:51;6.70;;;1.60;;
23578;SDS011;11967;50.852;4.400;2023-07-30T11:56:21;8.85;;;1.67;;
23578;SDS011;11967;50.852;4.400;2023-07-30T11:58:48;7.30;;;2.00;;
23578;SDS011;11967;50.852;4.400;2023-07-30T12:01:15;5.88;;;1.33;;
23578;SDS011;11967;50.852;4.400;2023-07-30T12:03:41;7.22;;;1.65;;
23578;SDS011;11967;50.852;4.400;2023-07-30T12:06:07;7.93;;;1.70;;
23578;SDS011;11967;50.852;4.400;2023-07-30T12:08:51;9.50;;;1.75;;
23578;SDS011;11967;50.852;4.400;2023-07-30T12:11:17;9.13;;;1.77;;
23578;SDS011;11967;50.852;4.400;2023-07-30T12:13:46;10.18;;;1.85;;
23578;SDS011;11967;50.852;4.400;2023-07-30T12:16:16;4.97;;;1.60;;
23578;SDS011;11967;50.852;4.400;2023-07-30T12:18:42;7.53;;;1.85;;
23578;SDS011;11967;50.852;4.400;2023-07-30T12:21:11;10.77;;;1.90;;
23578;SDS011;11967;50.852;4.400;2023-07-30T12:23:38;8.73;;;1.83;;
23578;SDS011;11967;50.852;4.400;2023-07-30T12:26:04;9.02;;;2.15;;
23578;SDS011;11967;50.852;4.400;2023-07-30T12:28:37;10.00;;;2.05;;
23578;SDS011;11967;50.852;4.400;2023-07-30T12:31:04;10.07;;;2.05;;
23578;SDS011;11967;50.852;4.400;2023-07-30T12:33:30;9.32;;;2.00;;
23578;SDS011;11967;50.852;4.400;2023-07-30T12:36:00;8.32;;;2.03;;
23578;SDS011;11967;50.852;4.400;2023-07-30T12:38:26;10.15;;;1.92;;
23578;SDS011;11967;50.852;4.400;2023-07-30T12:40:52;10.38;;;2.08;;
23578;SDS011;11967;50.852;4.400;2023-07-30T12:43:24;7.65;;;1.73;;
23578;SDS011;11967;50.852;4.400;2023-07-30T12:45:56;5.32;;;1.73;;
23578;SDS011;11967;50.852;4.400;2023-07-30T12:48:21;8.90;;;2.05;;
23578;SDS011;11967;50.852;4.400;2023-07-30T12:50:48;7.05;;;1.77;;
23578;SDS011;11967;50.852;4.400;2023-07-30T12:53:14;7.35;;;1.80;;
23578;SDS011;11967;50.852;4.400;2023-07-30T12:55:43;11.48;;;1.98;;
23578;SDS011;11967;50.852;4.400;2023-07-30T12:58:09;9.38;;;2.00;;
23578;SDS011;11967;50.852;4.400;2023-07-30T13:00:37;10.50;;;2.25;;
23578;SDS011;11967;50.852;4.400;2023-07-30T13:03:03;7.88;;;1.60;;
23578;SDS011;11967;50.852;4.400;2023-07-30T13:05:29;7.70;;;1.80;;
23578;SDS011;11967;50.852;4.400;2023-07-30T13:07:55;6.40;;;1.80;;
23578;SDS011;11967;50.852;4.400;2023-07-30T13:10:24;5.68;;;1.30;;
23578;SDS011;11967;50.852;4.400;2023-07-30T13:12:50;10.15;;;1.92;;
23578;SDS011;11967;50.852;4.400;2023-07-30T13:15:28;7.90;;;1.88;;
23578;SDS011;11967;50.852;4.400;2023-07-30T13:17:54;13.55;;;2.22;;
23578;SDS011;11967;50.852;4.400;2023-07-30T13:20:21;5.32;;;1.40;;
23578;SDS011;11967;50.852;4.400;2023-07-30T13:22:50;7.43;;;2.10;;
23578;SDS011;11967;50.852;4.400;2023-07-30T13:25:18;9.38;;;2.28;;
23578;SDS011;11967;50.852;4.400;2023-07-30T13:27:44;5.05;;;1.40;;
23578;SDS011;11967;50.852;4.400;2023-07-30T13:30:10;7.82;;;2.03;;
23578;SDS011;11967;50.852;4.400;2023-07-30T13:32:36;6.90;;;1.67;;
23578;SDS011;11967;50.852;4.400;2023-07-30T13:35:01;6.72;;;2.10;;
23578;SDS011;11967;50.852;4.400;2023-07-30T13:37:30;9.27;;;2.10;;
23578;SDS011;11967;50.852;4.400;2023-07-30T13:39:58;9.25;;;2.17;;
23578;SDS011;11967;50.852;4.400;2023-07-30T13:42:25;7.47;;;2.10;;
23578;SDS011;11967;50.852;4.400;2023-07-30T13:44:51;8.52;;;2.17;;
23578;SDS011;11967;50.852;4.400;2023-07-30T13:47:17;8.65;;;2.28;;
23578;SDS011;11967;50.852;4.400;2023-07-30T13:49:43;11.68;;;2.15;;
23578;SDS011;11967;50.852;4.400;2023-07-30T13:52:09;8.82;;;2.22;;
23578;SDS011;11967;50.852;4.400;2023-07-30T13:54:34;10.90;;;2.67;;
23578;SDS011;11967;50.852;4.400;2023-07-30T13:57:02;8.38;;;2.40;;
23578;SDS011;11967;50.852;4.400;2023-07-30T13:59:29;5.43;;;2.03;;
23578;SDS011;11967;50.852;4.400;2023-07-30T14:01:55;7.53;;;2.50;;
23578;SDS011;11967;50.852;4.400;2023-07-30T14:04:28;9.02;;;2.60;;
23578;SDS011;11967;50.852;4.400;2023-07-30T14:06:54;5.90;;;2.10;;
23578;SDS011;11967;50.852;4.400;2023-07-30T14:09:20;9.25;;;2.03;;
23578;SDS011;11967;50.852;4.400;2023-07-30T14:11:46;8.20;;;2.00;;
23578;SDS011;11967;50.852;4.400;2023-07-30T14:14:15;6.25;;;2.10;;
23578;SDS011;11967;50.852;4.400;2023-07-30T14:16:47;8.82;;;2.25;;
23578;SDS011;11967;50.852;4.400;2023-07-30T14:19:18;12.00;;;2.50;;
23578;SDS011;11967;50.852;4.400;2023-07-30T14:21:43;6.82;;;2.10;;
23578;SDS011;11967;50.852;4.400;2023-07-30T14:24:11;8.65;;;2.25;;
23578;SDS011;11967;50.852;4.400;2023-07-30T14:26:36;10.73;;;2.55;;
23578;SDS011;11967;50.852;4.400;2023-07-30T14:29:02;9.63;;;2.42;;
23578;SDS011;11967;50.852;4.400;2023-07-30T14:31:29;9.50;;;2.42;;
23578;SDS011;11967;50.852;4.400;2023-07-30T14:33:57;10.50;;;2.50;;
23578;SDS011;11967;50.852;4.400;2023-07-30T14:36:26;9.90;;;2.60;;
23578;SDS011;11967;50.852;4.400;2023-07-30T14:38:51;8.75;;;2.35;;
23578;SDS011;11967;50.852;4.400;2023-07-30T14:41:21;9.85;;;2.40;;